+1(904) 362 - 3629 office@ultralightlsa.com

You are listening to: KCRG Gnd/Twr/App – Jacksonville, Florida, United States



 





 

 

You are listening to:
KCRG Gnd/Twr/App – Jacksonville, Florida, United States

KCRG 301853Z VRB04KT 10SM FEW050 FEW090 SCT110 24/19 A3019 RMK AO2 RAB40E50 SLP223 P0000 T02390189

 

























If stream doesn’t start automatically press the play button

If stream stops then reload player then press play